Time;durP1;ratioP1;P1;durP2;ratioP2;P2;SDS_P1;SDS_P2;PMS_P1;PMS_P2;Temp;Humidity;BMP_temperature;BMP_pressure;BME280_temperature;BME280_humidity;BME280_pressure;Samples;Min_cycle;Max_cycle;Signal;HPM_P1;HPM_P2
2021/05/10 00:01:21;;;;;;;5.55;1.60;;;21.10;56.50;;;;;;5070088;28;20040;-75
2021/05/10 00:03:48;;;;;;;4.00;1.50;;;21.10;56.20;;;;;;5087446;28;20488;-75
2021/05/10 00:06:14;;;;;;;4.15;1.83;;;21.10;55.90;;;;;;5085553;28;20028;-75
2021/05/10 00:08:41;;;;;;;4.85;1.70;;;21.10;55.70;;;;;;5092129;28;20792;-75
2021/05/10 00:11:06;;;;;;;4.25;1.50;;;21.10;55.70;;;;;;5092278;28;20024;-75
2021/05/10 00:13:33;;;;;;;3.67;1.40;;;21.10;55.60;;;;;;5082248;28;20081;-75
2021/05/10 00:15:58;;;;;;;3.33;1.52;;;21.10;55.40;;;;;;5065917;28;20031;-75
2021/05/10 00:18:24;;;;;;;5.25;1.70;;;21.10;55.40;;;;;;5081074;28;20020;-75
2021/05/10 00:20:50;;;;;;;4.57;1.20;;;21.20;55.30;;;;;;5071240;28;20039;-75
2021/05/10 00:23:17;;;;;;;3.75;1.25;;;21.10;55.20;;;;;;5067956;28;20392;-76
2021/05/10 00:25:44;;;;;;;2.42;1.40;;;21.10;55.10;;;;;;5095647;28;20024;-75
2021/05/10 00:28:10;;;;;;;5.90;1.67;;;21.10;54.90;;;;;;5095351;28;20213;-75
2021/05/10 00:30:36;;;;;;;4.80;1.25;;;21.10;54.80;;;;;;5095667;28;20119;-75
2021/05/10 00:33:04;;;;;;;5.88;1.27;;;21.10;54.90;;;;;;5077420;28;20120;-75
2021/05/10 00:35:30;;;;;;;5.95;1.35;;;21.20;54.70;;;;;;5094888;28;20044;-76
2021/05/10 00:37:56;;;;;;;5.65;1.30;;;21.10;54.40;;;;;;5095375;28;20117;-75
2021/05/10 00:40:24;;;;;;;3.20;1.27;;;21.10;54.60;;;;;;5048443;28;20504;-75
2021/05/10 00:42:50;;;;;;;3.33;1.40;;;21.10;54.40;;;;;;5049269;28;20021;-75
2021/05/10 00:45:16;;;;;;;6.63;1.27;;;21.10;53.90;;;;;;5043629;28;20035;-75
2021/05/10 00:47:42;;;;;;;4.07;1.30;;;21.10;53.90;;;;;;5051835;28;20056;-75
2021/05/10 00:50:10;;;;;;;4.22;1.40;;;21.10;54.00;;;;;;5075047;28;20045;-75
2021/05/10 00:52:36;;;;;;;3.65;1.33;;;21.10;53.70;;;;;;5052000;28;20112;-75
2021/05/10 00:55:04;;;;;;;4.53;1.20;;;21.10;53.70;;;;;;5039944;28;20040;-75
2021/05/10 00:57:34;;;;;;;4.00;1.20;;;21.10;54.00;;;;;;5054340;28;20474;-75
2021/05/10 01:00:00;;;;;;;5.28;1.38;;;21.10;53.80;;;;;;5051879;28;20036;-75
2021/05/10 01:02:26;;;;;;;2.70;0.98;;;21.10;53.70;;;;;;5054458;28;20033;-75
2021/05/10 01:04:52;;;;;;;2.30;1.25;;;21.10;53.60;;;;;;5050001;28;20032;-75
2021/05/10 01:07:17;;;;;;;3.13;1.40;;;21.10;53.50;;;;;;5065752;28;20033;-75
2021/05/10 01:09:43;;;;;;;4.07;1.20;;;21.00;53.50;;;;;;5053584;28;20034;-75
2021/05/10 01:12:09;;;;;;;10.30;1.13;;;21.00;53.70;;;;;;5047384;28;20025;-76
2021/05/10 01:14:34;;;;;;;6.40;1.20;;;21.00;53.50;;;;;;5046327;28;20032;-75
2021/05/10 01:17:01;;;;;;;3.70;1.10;;;20.90;53.30;;;;;;5050841;28;20347;-76
2021/05/10 01:19:28;;;;;;;2.10;0.90;;;20.90;53.30;;;;;;5046631;28;20028;-76
2021/05/10 01:21:56;;;;;;;2.05;0.90;;;20.90;53.00;;;;;;5044534;28;20055;-75
2021/05/10 01:24:22;;;;;;;2.30;0.98;;;20.90;52.50;;;;;;5054565;28;20090;-75
2021/05/10 01:26:48;;;;;;;2.60;0.90;;;20.90;53.20;;;;;;5033629;28;20038;-75
2021/05/10 01:29:14;;;;;;;1.65;0.85;;;20.90;52.20;;;;;;5078372;28;20497;-75
2021/05/10 01:31:40;;;;;;;4.18;1.08;;;21.00;51.40;;;;;;5052262;28;20044;-75
2021/05/10 01:34:05;;;;;;;5.53;0.75;;;21.10;50.50;;;;;;5053066;28;20025;-75
2021/05/10 01:36:32;;;;;;;2.10;0.90;;;21.10;50.60;;;;;;5054064;28;20025;-75
2021/05/10 01:38:57;;;;;;;4.28;0.98;;;21.20;50.10;;;;;;5052532;28;20036;-76
2021/05/10 01:41:23;;;;;;;8.02;1.10;;;21.20;50.30;;;;;;5080112;28;20067;-75
2021/05/10 01:43:49;;;;;;;3.80;0.90;;;21.20;50.00;;;;;;5087428;28;20068;-75
2021/05/10 01:46:15;;;;;;;8.00;1.13;;;21.30;50.10;;;;;;5071042;28;20385;-75
2021/05/10 01:48:40;;;;;;;5.55;1.02;;;21.30;50.20;;;;;;5089148;28;20036;-75
2021/05/10 01:51:06;;;;;;;4.65;1.02;;;21.30;50.00;;;;;;5074961;28;20027;-75
2021/05/10 01:53:32;;;;;;;2.45;0.60;;;21.30;49.30;;;;;;5093686;28;20067;-75
2021/05/10 01:55:58;;;;;;;3.50;0.77;;;21.30;49.40;;;;;;5088033;28;20028;-75
2021/05/10 01:58:24;;;;;;;3.03;0.93;;;21.30;49.40;;;;;;5074066;28;20420;-75
2021/05/10 02:00:50;;;;;;;6.10;0.90;;;21.40;49.40;;;;;;5063096;28;20368;-75
2021/05/10 02:03:18;;;;;;;4.22;0.82;;;21.30;49.80;;;;;;5090823;28;20029;-75
2021/05/10 02:05:45;;;;;;;1.50;0.80;;;21.30;49.10;;;;;;5093614;28;20512;-75
2021/05/10 02:08:12;;;;;;;8.52;1.10;;;21.40;49.20;;;;;;5075478;28;20040;-75
2021/05/10 02:10:44;;;;;;;4.90;1.13;;;21.30;50.00;;;;;;5092875;28;20032;-75
2021/05/10 02:13:10;;;;;;;6.15;0.77;;;21.30;49.20;;;;;;5074063;28;20082;-76
2021/05/10 02:15:37;;;;;;;7.50;0.85;;;21.40;49.30;;;;;;5092684;28;20104;-75
2021/05/10 02:18:04;;;;;;;4.00;0.88;;;21.40;50.20;;;;;;5076629;28;20044;-75
2021/05/10 02:20:31;;;;;;;4.90;0.90;;;21.30;49.20;;;;;;5066972;28;20547;-75
2021/05/10 02:22:58;;;;;;;7.43;0.90;;;21.30;49.60;;;;;;5091768;28;20027;-75
2021/05/10 02:25:26;;;;;;;3.47;0.80;;;21.30;49.50;;;;;;5092489;28;20545;-76
2021/05/10 02:27:52;;;;;;;3.78;0.90;;;21.30;49.40;;;;;;5093552;28;20064;-75
2021/05/10 02:30:19;;;;;;;8.90;1.08;;;21.30;49.70;;;;;;5092388;28;20175;-75
2021/05/10 02:32:46;;;;;;;3.53;1.05;;;21.30;49.50;;;;;;5088042;28;20103;-75
2021/05/10 02:35:12;;;;;;;2.47;0.73;;;21.30;49.60;;;;;;5068584;28;20021;-75
2021/05/10 02:37:38;;;;;;;2.53;0.93;;;21.30;49.50;;;;;;5056472;28;20398;-75
2021/05/10 02:40:05;;;;;;;2.65;0.80;;;21.30;50.00;;;;;;5069808;28;20052;-76
2021/05/10 02:42:31;;;;;;;1.60;0.90;;;21.30;50.00;;;;;;5061685;28;20031;-76
2021/05/10 02:44:57;;;;;;;2.22;0.75;;;21.20;50.30;;;;;;5053104;28;20014;-73
2021/05/10 02:47:23;;;;;;;4.30;0.93;;;21.20;51.30;;;;;;5044287;28;20406;-75
2021/05/10 02:49:49;;;;;;;5.43;0.98;;;21.20;50.60;;;;;;5049648;28;20025;-75
2021/05/10 02:52:14;;;;;;;3.88;1.13;;;21.20;50.40;;;;;;5049813;28;20436;-76
2021/05/10 02:54:40;;;;;;;1.40;0.90;;;21.10;50.80;;;;;;5051839;28;20025;-75
2021/05/10 02:57:06;;;;;;;8.15;0.80;;;21.10;50.80;;;;;;5052145;28;20051;-76
2021/05/10 02:59:31;;;;;;;2.03;0.73;;;21.00;50.90;;;;;;5073047;28;20021;-75
2021/05/10 03:01:57;;;;;;;3.45;0.77;;;21.00;50.80;;;;;;5025658;28;20060;-75
2021/05/10 03:04:23;;;;;;;3.00;0.80;;;21.00;51.00;;;;;;5031791;28;20057;-75
2021/05/10 03:06:48;;;;;;;1.90;0.80;;;20.90;51.50;;;;;;5036243;28;20038;-75
2021/05/10 03:09:14;;;;;;;4.07;1.00;;;21.00;51.40;;;;;;5033820;28;20099;-76
2021/05/10 03:11:39;;;;;;;2.15;0.80;;;20.90;51.10;;;;;;5037185;28;20037;-76
2021/05/10 03:14:05;;;;;;;4.82;1.00;;;20.90;51.50;;;;;;5044424;28;20020;-76
2021/05/10 03:16:31;;;;;;;2.97;0.80;;;20.90;51.20;;;;;;5055941;28;20032;-76
2021/05/10 03:18:56;;;;;;;6.63;1.05;;;20.90;51.30;;;;;;5041991;28;20393;-75
2021/05/10 03:21:22;;;;;;;7.07;0.88;;;20.90;51.30;;;;;;5060530;28;20033;-76
2021/05/10 03:23:47;;;;;;;4.88;0.80;;;20.90;51.90;;;;;;5054449;28;20041;-75
2021/05/10 03:26:13;;;;;;;2.58;0.95;;;20.90;52.20;;;;;;5044640;28;20394;-76
2021/05/10 03:28:39;;;;;;;6.32;1.23;;;20.80;52.10;;;;;;5053326;28;20112;-75
2021/05/10 03:31:05;;;;;;;1.67;0.73;;;20.80;52.30;;;;;;5062657;28;20386;-75
2021/05/10 03:33:30;;;;;;;3.60;0.93;;;20.80;52.20;;;;;;5034079;28;20161;-75
2021/05/10 03:35:56;;;;;;;3.22;1.15;;;20.80;52.30;;;;;;5048564;28;20029;-75
2021/05/10 03:38:21;;;;;;;4.88;1.00;;;20.80;52.20;;;;;;5052384;28;20029;-75
2021/05/10 03:40:47;;;;;;;2.90;0.90;;;20.80;52.00;;;;;;5078272;28;20040;-75
2021/05/10 03:43:13;;;;;;;3.85;0.70;;;20.80;52.00;;;;;;5092439;28;20024;-75
2021/05/10 03:45:39;;;;;;;5.40;1.10;;;20.80;52.40;;;;;;5078151;28;20507;-75
2021/05/10 03:48:06;;;;;;;3.50;1.05;;;20.80;52.10;;;;;;5060211;28;20032;-75
2021/05/10 03:50:32;;;;;;;4.70;0.82;;;20.80;52.60;;;;;;5095981;28;20028;-75
2021/05/10 03:52:57;;;;;;;3.38;1.08;;;20.80;52.90;;;;;;5095689;28;20054;-75
2021/05/10 03:55:23;;;;;;;3.97;1.02;;;20.70;53.10;;;;;;5077469;28;20024;-75
2021/05/10 03:57:50;;;;;;;4.85;0.82;;;20.70;53.20;;;;;;5094335;28;20024;-75
2021/05/10 04:00:17;;;;;;;2.65;0.80;;;20.60;53.20;;;;;;5095782;28;20085;-75
2021/05/10 04:02:44;;;;;;;4.15;0.90;;;20.60;53.30;;;;;;5095046;28;20024;-75
2021/05/10 04:15:48;;;;;;;8.07;1.02;;;20.50;54.00;;;;;;5094787;28;20101;-75
2021/05/10 04:18:15;;;;;;;6.05;1.02;;;20.50;54.50;;;;;;5096322;28;20099;-75
2021/05/10 04:20:41;;;;;;;1.98;0.85;;;20.50;55.10;;;;;;5087395;28;20036;-75
2021/05/10 04:23:07;;;;;;;7.55;1.35;;;20.40;55.40;;;;;;5058157;28;20358;-76
2021/05/10 04:25:32;;;;;;;1.85;0.80;;;20.40;56.20;;;;;;5092242;28;20051;-75
2021/05/10 04:27:58;;;;;;;3.67;1.10;;;20.30;56.90;;;;;;5077514;28;20390;-75
2021/05/10 04:30:24;;;;;;;2.83;1.10;;;20.30;57.10;;;;;;5095650;28;20556;-75
2021/05/10 04:32:50;;;;;;;5.28;1.00;;;20.20;57.80;;;;;;5077947;28;20024;-75
2021/05/10 04:35:15;;;;;;;2.25;1.10;;;20.10;58.20;;;;;;5086731;28;20427;-75
2021/05/10 04:37:41;;;;;;;2.67;1.30;;;20.00;58.20;;;;;;5060784;28;20032;-75
2021/05/10 04:40:08;;;;;;;1.73;0.95;;;20.00;57.80;;;;;;5091999;28;20048;-76
2021/05/10 04:42:33;;;;;;;5.13;1.30;;;20.00;57.50;;;;;;5057785;28;20025;-75
2021/05/10 04:44:59;;;;;;;7.50;1.20;;;20.00;58.20;;;;;;5094029;28;20081;-75
2021/05/10 04:47:35;;;;;;;6.40;1.08;;;19.90;57.30;;;;;;5094656;28;20044;-75
2021/05/10 04:50:02;;;;;;;4.05;1.30;;;20.00;56.60;;;;;;5094930;28;20035;-75
2021/05/10 04:52:28;;;;;;;11.10;0.95;;;20.00;57.10;;;;;;5052471;28;20032;-75
2021/05/10 04:54:53;;;;;;;12.75;1.30;;;20.00;57.70;;;;;;5083080;28;20112;-75
2021/05/10 04:57:19;;;;;;;13.05;1.38;;;20.00;58.00;;;;;;5060020;28;20051;-75
2021/05/10 04:59:45;;;;;;;14.32;1.77;;;20.00;58.70;;;;;;5083952;28;20074;-75
2021/05/10 05:02:10;;;;;;;20.95;1.38;;;20.00;59.40;;;;;;5075188;28;20043;-75
2021/05/10 05:04:36;;;;;;;19.90;1.52;;;19.90;59.50;;;;;;5070917;28;20028;-75
2021/05/10 05:07:02;;;;;;;10.30;1.48;;;19.90;59.70;;;;;;5095504;28;20071;-75
2021/05/10 05:09:28;;;;;;;13.02;1.05;;;19.90;59.80;;;;;;5076487;28;20036;-75
2021/05/10 05:11:54;;;;;;;10.27;1.10;;;19.90;60.10;;;;;;5095193;28;20047;-75
2021/05/10 05:14:19;;;;;;;6.95;1.10;;;19.80;60.30;;;;;;5091129;28;20036;-75
2021/05/10 05:16:45;;;;;;;6.43;0.95;;;19.80;60.60;;;;;;5070730;28;20032;-72
2021/05/10 05:19:11;;;;;;;11.35;1.10;;;19.80;60.40;;;;;;5090909;28;20024;-75
2021/05/10 05:21:36;;;;;;;5.47;0.80;;;19.70;60.50;;;;;;5056823;28;20039;-75
2021/05/10 05:24:02;;;;;;;8.20;0.98;;;19.70;60.10;;;;;;5084365;28;20062;-75
2021/05/10 05:26:28;;;;;;;5.18;0.68;;;19.70;59.00;;;;;;5084740;28;20028;-75
2021/05/10 05:28:53;;;;;;;2.55;0.50;;;19.70;59.20;;;;;;5084676;28;20040;-75
2021/05/10 05:31:22;;;;;;;1.88;0.50;;;19.70;59.40;;;;;;5083348;28;20032;-75
2021/05/10 05:33:47;;;;;;;3.00;0.63;;;19.70;59.70;;;;;;5085074;28;20039;-75
2021/05/10 05:36:13;;;;;;;1.38;0.40;;;19.70;59.80;;;;;;5065870;28;20028;-75
2021/05/10 05:38:40;;;;;;;2.22;0.50;;;19.60;60.00;;;;;;5083079;28;20611;-75
2021/05/10 05:41:06;;;;;;;1.08;0.40;;;19.60;60.50;;;;;;5064872;28;20068;-74
2021/05/10 05:43:32;;;;;;;1.20;0.70;;;19.60;60.90;;;;;;5081760;28;20113;-75
2021/05/10 05:45:58;;;;;;;3.90;0.60;;;19.70;61.20;;;;;;5063506;28;20491;-75
2021/05/10 05:48:23;;;;;;;6.18;0.73;;;19.70;61.40;;;;;;5085413;28;20533;-74
2021/05/10 05:50:49;;;;;;;5.53;0.50;;;19.70;61.30;;;;;;5082522;28;20173;-75
2021/05/10 05:53:15;;;;;;;4.10;0.52;;;19.70;62.30;;;;;;5065186;28;20469;-75
2021/05/10 05:55:41;;;;;;;4.43;0.50;;;19.70;62.20;;;;;;5082409;28;20032;-74
2021/05/10 05:58:06;;;;;;;2.35;0.60;;;19.70;62.90;;;;;;5081543;28;20049;-74
2021/05/10 06:00:32;;;;;;;3.13;0.82;;;19.80;63.20;;;;;;5083092;28;20033;-74
2021/05/10 06:02:58;;;;;;;2.80;0.50;;;19.70;64.20;;;;;;5065645;28;20067;-74
2021/05/10 06:05:24;;;;;;;1.92;0.60;;;19.70;64.60;;;;;;5081580;28;20040;-75
2021/05/10 06:07:50;;;;;;;4.78;0.47;;;19.80;63.20;;;;;;5083994;28;20024;-75
2021/05/10 06:10:21;;;;;;;3.60;0.80;;;19.80;63.60;;;;;;5086174;28;20061;-74
2021/05/10 06:12:49;;;;;;;0.98;0.38;;;19.80;63.50;;;;;;5062652;28;20511;-74
2021/05/10 06:15:16;;;;;;;2.33;0.52;;;19.80;64.40;;;;;;5082139;28;20028;-74
2021/05/10 06:17:42;;;;;;;3.70;0.60;;;19.80;64.70;;;;;;5064895;28;20024;-74
2021/05/10 06:20:09;;;;;;;2.03;0.50;;;19.90;64.30;;;;;;5063402;28;20082;-75
2021/05/10 06:22:39;;;;;;;1.42;0.45;;;19.90;64.40;;;;;;5082956;28;20017;-75
2021/05/10 06:25:10;;;;;;;1.35;0.60;;;19.90;64.90;;;;;;5064272;28;20077;-75
2021/05/10 06:27:35;;;;;;;2.63;0.65;;;20.00;65.20;;;;;;5062579;28;20461;-74
2021/05/10 06:30:02;;;;;;;2.00;0.73;;;20.00;65.20;;;;;;5047114;28;20119;-74
2021/05/10 06:32:27;;;;;;;2.08;0.80;;;20.10;65.20;;;;;;5097768;28;20032;-75
2021/05/10 06:34:53;;;;;;;1.30;0.70;;;20.30;65.10;;;;;;5046047;28;20499;-75
2021/05/10 06:37:20;;;;;;;5.18;0.70;;;20.40;64.60;;;;;;5063732;28;20028;-75
2021/05/10 06:39:49;;;;;;;1.60;0.75;;;20.50;64.60;;;;;;5082532;28;20127;-74
2021/05/10 06:42:15;;;;;;;1.83;0.85;;;20.40;64.30;;;;;;5083560;28;20028;-75
2021/05/10 06:44:42;;;;;;;5.75;0.95;;;20.30;64.50;;;;;;5084437;28;20107;-75
2021/05/10 06:47:08;;;;;;;2.17;0.70;;;20.10;65.50;;;;;;5081805;28;20459;-75
2021/05/10 06:49:34;;;;;;;1.73;0.70;;;20.00;65.70;;;;;;5063708;28;20028;-75
2021/05/10 06:52:00;;;;;;;3.53;0.82;;;19.80;66.20;;;;;;5061564;28;20362;-74
2021/05/10 06:54:26;;;;;;;3.65;0.60;;;19.80;65.80;;;;;;5086654;28;20024;-75
2021/05/10 06:56:51;;;;;;;2.50;0.80;;;19.60;65.80;;;;;;5078878;28;20142;-75
2021/05/10 06:59:18;;;;;;;3.65;0.70;;;19.60;65.60;;;;;;5082456;28;20031;-75
2021/05/10 07:01:44;;;;;;;2.90;0.50;;;19.50;65.60;;;;;;5082433;28;20032;-75
2021/05/10 07:04:10;;;;;;;4.80;0.65;;;19.50;64.80;;;;;;5082241;28;20153;-75
2021/05/10 07:06:35;;;;;;;1.30;0.60;;;19.50;65.30;;;;;;5083854;28;20099;-75
2021/05/10 07:09:01;;;;;;;3.00;0.60;;;19.60;65.70;;;;;;5082971;28;20024;-75
2021/05/10 07:11:27;;;;;;;6.97;1.00;;;19.60;65.50;;;;;;5062999;28;20028;-75
2021/05/10 07:13:52;;;;;;;10.52;1.05;;;19.60;64.80;;;;;;5063865;28;20528;-75
2021/05/10 07:16:18;;;;;;;8.98;0.70;;;19.70;64.40;;;;;;5086315;28;20021;-75
2021/05/10 07:18:43;;;;;;;7.10;1.00;;;19.80;64.30;;;;;;5060997;28;20024;-75
2021/05/10 07:21:09;;;;;;;6.47;0.70;;;19.90;63.90;;;;;;5080608;28;20067;-75
2021/05/10 07:23:36;;;;;;;2.38;0.68;;;20.10;63.70;;;;;;5082078;28;20120;-75
2021/05/10 07:26:01;;;;;;;7.00;0.70;;;20.40;62.70;;;;;;5086976;28;20030;-75
2021/05/10 07:28:27;;;;;;;11.13;0.82;;;20.60;61.90;;;;;;5069567;28;20028;-75
2021/05/10 07:30:53;;;;;;;4.45;0.63;;;20.70;61.10;;;;;;5074745;28;20392;-75
2021/05/10 07:33:18;;;;;;;8.07;0.70;;;20.70;60.70;;;;;;5089649;28;20029;-75
2021/05/10 07:35:44;;;;;;;4.50;0.88;;;20.70;61.10;;;;;;5071649;28;20028;-75
2021/05/10 07:38:10;;;;;;;6.18;0.80;;;20.60;59.90;;;;;;5072536;28;20028;-75
2021/05/10 07:40:36;;;;;;;1.98;0.63;;;20.40;61.40;;;;;;5072369;28;20076;-75
2021/05/10 07:43:02;;;;;;;9.48;0.90;;;20.20;61.60;;;;;;5072656;28;20413;-75
2021/05/10 07:45:30;;;;;;;6.18;0.65;;;20.10;62.30;;;;;;5072588;28;20032;-75
2021/05/10 07:48:00;;;;;;;2.08;0.75;;;19.90;63.30;;;;;;5072603;28;20029;-75
2021/05/10 07:50:27;;;;;;;3.92;1.20;;;19.80;62.60;;;;;;5078364;28;20412;-75
2021/05/10 07:52:54;;;;;;;4.20;0.77;;;19.60;62.20;;;;;;5078616;28;20059;-75
2021/05/10 07:55:20;;;;;;;2.38;0.88;;;19.50;62.80;;;;;;5088649;28;20017;-75
2021/05/10 07:57:46;;;;;;;7.22;0.90;;;19.50;63.10;;;;;;5074540;28;20020;-75
2021/05/10 08:00:16;;;;;;;2.72;0.73;;;19.50;63.40;;;;;;5092599;28;20036;-75
2021/05/10 08:02:46;;;;;;;4.80;0.80;;;19.50;64.00;;;;;;5075000;28;20016;-75
2021/05/10 08:05:13;;;;;;;2.05;0.80;;;19.60;64.40;;;;;;5072209;28;20020;-75
2021/05/10 08:07:40;;;;;;;5.05;0.70;;;19.80;63.80;;;;;;5092357;28;20016;-75
2021/05/10 08:10:07;;;;;;;3.10;0.70;;;19.90;63.10;;;;;;5074356;28;20032;-75
2021/05/10 08:12:33;;;;;;;2.95;0.93;;;20.20;62.80;;;;;;5092370;28;20110;-75
2021/05/10 08:14:58;;;;;;;2.03;0.73;;;20.50;62.50;;;;;;5092582;28;20059;-75
2021/05/10 08:17:25;;;;;;;9.25;0.90;;;20.90;61.80;;;;;;5092393;28;20032;-75
2021/05/10 08:19:51;;;;;;;8.23;1.25;;;21.10;60.20;;;;;;5092173;28;20039;-75
2021/05/10 08:22:17;;;;;;;3.65;0.82;;;21.10;60.00;;;;;;5090713;28;20524;-75
2021/05/10 08:25:16;;;;;;;3.72;0.85;;;21.00;60.30;;;;;;5092396;28;20099;-75
2021/05/10 08:27:41;;;;;;;3.95;0.85;;;21.00;60.70;;;;;;5074276;28;20477;-75
2021/05/10 08:30:10;;;;;;;4.20;0.80;;;20.90;59.60;;;;;;5092320;28;20143;-75
2021/05/10 08:32:36;;;;;;;4.93;0.90;;;20.80;60.10;;;;;;5093362;28;20444;-75
2021/05/10 08:35:03;;;;;;;2.10;0.75;;;20.80;60.70;;;;;;5096073;28;20051;-75
2021/05/10 08:37:29;;;;;;;2.95;0.75;;;20.80;60.00;;;;;;5046394;28;20115;-75
2021/05/10 08:39:56;;;;;;;6.15;1.10;;;20.80;59.70;;;;;;5075345;28;20464;-75
2021/05/10 08:42:21;;;;;;;2.75;0.80;;;20.70;59.60;;;;;;5075572;28;20397;-75
2021/05/10 08:44:47;;;;;;;4.00;0.90;;;20.70;60.30;;;;;;5075533;28;20032;-75
2021/05/10 08:47:13;;;;;;;8.30;0.85;;;20.80;60.50;;;;;;5075295;28;20104;-75
2021/05/10 08:49:39;;;;;;;4.38;0.80;;;20.90;59.70;;;;;;5075278;28;20432;-75
2021/05/10 08:52:04;;;;;;;2.08;0.80;;;21.20;59.20;;;;;;5075258;28;20039;-75
2021/05/10 08:54:31;;;;;;;3.25;1.20;;;21.50;58.70;;;;;;5095479;28;20032;-76
2021/05/10 08:57:00;;;;;;;5.00;1.10;;;21.60;57.80;;;;;;5095108;28;20141;-75
2021/05/10 08:59:27;;;;;;;5.32;1.60;;;21.50;57.90;;;;;;5047418;28;20031;-75
2021/05/10 09:01:55;;;;;;;6.15;1.10;;;21.40;58.50;;;;;;5083419;28;20060;-75
2021/05/10 09:04:38;;;;;;;2.97;1.00;;;21.30;59.20;;;;;;5077695;28;20427;-75
2021/05/10 09:07:23;;;;;;;5.00;0.90;;;21.30;59.50;;;;;;5095479;28;20127;-75
2021/05/10 09:10:04;;;;;;;4.45;0.85;;;21.30;58.50;;;;;;5093586;28;20443;-74
2021/05/10 09:12:51;;;;;;;2.45;0.80;;;21.20;59.10;;;;;;5082878;28;20025;-75
2021/05/10 09:15:34;;;;;;;1.75;0.85;;;21.10;59.20;;;;;;5089236;28;20036;-75
2021/05/10 09:18:01;;;;;;;6.03;0.90;;;21.00;59.00;;;;;;5076958;28;20020;-75
2021/05/10 09:20:29;;;;;;;5.57;1.20;;;20.90;59.30;;;;;;5095198;28;20073;-75
2021/05/10 09:22:58;;;;;;;6.30;1.00;;;20.80;59.50;;;;;;5095079;28;20013;-75
2021/05/10 09:25:30;;;;;;;;;;;20.80;59.30;;;;;;5089967;28;20024;-75
2021/05/10 09:28:10;;;;;;;4.20;1.10;;;20.70;59.40;;;;;;5090466;28;20365;-75
2021/05/10 09:30:35;;;;;;;2.20;1.15;;;20.50;59.20;;;;;;5074577;28;20029;-75
2021/05/10 09:33:01;;;;;;;2.40;1.08;;;20.40;59.80;;;;;;5074790;28;20044;-75
2021/05/10 09:35:29;;;;;;;6.22;0.73;;;20.40;60.10;;;;;;5074559;28;20037;-75
2021/05/10 09:38:00;;;;;;;4.65;1.08;;;20.20;60.30;;;;;;5082454;28;20024;-75
2021/05/10 09:40:29;;;;;;;6.07;0.70;;;20.10;60.70;;;;;;5094555;28;20500;-75
2021/05/10 09:42:59;;;;;;;5.40;0.90;;;19.90;59.00;;;;;;5093766;28;20058;-75
2021/05/10 09:45:35;;;;;;;3.67;0.80;;;19.70;60.10;;;;;;5094866;28;20495;-75
2021/05/10 09:48:16;;;;;;;3.05;0.73;;;19.40;59.70;;;;;;5076056;28;20016;-74
2021/05/10 09:50:44;;;;;;;2.72;0.65;;;19.20;60.20;;;;;;5086255;28;20454;-75
2021/05/10 09:53:14;;;;;;;2.25;1.02;;;19.00;60.60;;;;;;5094265;28;20023;-75
2021/05/10 09:55:53;;;;;;;4.25;0.65;;;18.80;61.60;;;;;;5094113;28;20024;-75
2021/05/10 09:58:21;;;;;;;1.73;0.70;;;18.70;61.70;;;;;;5093171;28;20027;-75
2021/05/10 10:00:53;;;;;;;2.10;0.88;;;18.60;62.00;;;;;;5095034;28;20055;-75
2021/05/10 10:03:24;;;;;;;5.03;1.10;;;18.50;62.60;;;;;;5094264;28;20028;-75
2021/05/10 10:05:55;;;;;;;3.33;1.02;;;18.50;64.30;;;;;;5077516;28;20025;-75
2021/05/10 10:08:21;;;;;;;3.33;1.38;;;18.30;67.30;;;;;;5079987;28;20031;-74
2021/05/10 10:10:47;;;;;;;2.85;1.02;;;18.10;69.40;;;;;;5094092;28;20028;-74
2021/05/10 10:13:15;;;;;;;4.90;1.00;;;17.90;70.70;;;;;;5094001;28;20022;-74
2021/05/10 10:15:41;;;;;;;5.10;1.20;;;17.80;71.50;;;;;;5075698;28;20024;-75
2021/05/10 10:18:09;;;;;;;3.92;1.00;;;17.70;72.20;;;;;;5093257;28;20016;-75
2021/05/10 10:20:36;;;;;;;3.47;1.02;;;17.70;72.40;;;;;;5093706;28;20127;-75
2021/05/10 10:23:03;;;;;;;3.30;0.98;;;17.60;73.00;;;;;;5093368;28;20028;-75
2021/05/10 10:25:29;;;;;;;4.95;1.20;;;17.60;73.60;;;;;;5092408;28;20048;-75
2021/05/10 10:27:56;;;;;;;5.97;1.17;;;17.60;74.40;;;;;;5074948;28;20070;-75
2021/05/10 10:30:23;;;;;;;1.73;1.23;;;17.50;73.90;;;;;;5093021;28;20445;-75
2021/05/10 10:32:50;;;;;;;2.78;1.25;;;17.50;74.20;;;;;;5083167;28;20484;-75
2021/05/10 10:35:17;;;;;;;2.67;1.17;;;17.50;74.50;;;;;;5093793;28;20484;-75
2021/05/10 10:37:43;;;;;;;3.88;1.27;;;17.50;75.30;;;;;;5093079;28;20111;-75
2021/05/10 10:40:17;;;;;;;3.63;1.45;;;17.50;75.60;;;;;;5074463;28;20051;-75
2021/05/10 10:42:42;;;;;;;2.30;1.23;;;17.40;75.80;;;;;;5076013;28;20066;-75
2021/05/10 10:45:11;;;;;;;2.97;1.40;;;17.40;75.80;;;;;;5093126;28;20481;-75
2021/05/10 10:47:44;;;;;;;4.38;1.40;;;17.40;75.70;;;;;;5074585;28;20535;-75
2021/05/10 10:50:17;;;;;;;3.30;1.20;;;17.30;75.60;;;;;;5086364;28;20119;-75
2021/05/10 10:52:55;;;;;;;6.22;1.50;;;17.30;76.00;;;;;;5074000;28;20485;-75
2021/05/10 10:55:27;;;;;;;2.83;1.40;;;17.30;76.00;;;;;;5092626;28;20121;-75
2021/05/10 10:58:11;;;;;;;1.60;1.05;;;17.30;76.00;;;;;;5093373;28;20020;-75
2021/05/10 11:00:56;;;;;;;3.22;1.40;;;17.40;75.90;;;;;;5075175;28;20389;-75
2021/05/10 11:03:25;;;;;;;4.72;1.40;;;17.40;75.70;;;;;;5093294;28;20063;-75
2021/05/10 11:05:51;;;;;;;3.28;1.40;;;17.50;75.50;;;;;;5058105;28;20052;-75
2021/05/10 11:08:17;;;;;;;4.47;1.08;;;17.50;75.00;;;;;;5092956;28;20059;-75
2021/05/10 11:10:51;;;;;;;2.42;1.00;;;17.50;74.20;;;;;;5093063;28;20380;-75
2021/05/10 11:13:29;;;;;;;2.55;1.17;;;17.50;73.50;;;;;;5093111;28;20020;-75
2021/05/10 11:16:09;;;;;;;3.05;1.10;;;17.50;72.80;;;;;;5074777;28;20028;-75
2021/05/10 11:18:55;;;;;;;2.97;1.05;;;17.50;73.20;;;;;;5087029;28;20032;-75
2021/05/10 11:21:24;;;;;;;3.28;1.00;;;17.50;73.60;;;;;;5090481;28;20393;-75
2021/05/10 11:24:11;;;;;;;2.72;1.00;;;17.50;71.50;;;;;;5092762;28;20150;-75
2021/05/10 11:26:43;;;;;;;3.10;1.10;;;17.50;71.40;;;;;;5075291;28;20404;-75
2021/05/10 11:29:24;;;;;;;5.78;1.40;;;17.40;71.70;;;;;;5057236;28;20028;-75
2021/05/10 11:31:50;;;;;;;4.30;1.25;;;17.40;71.20;;;;;;5089107;28;20039;-75
2021/05/10 11:34:32;;;;;;;6.40;1.10;;;17.30;71.40;;;;;;5075021;28;20166;-75
2021/05/10 11:36:59;;;;;;;3.47;1.08;;;17.30;70.90;;;;;;5095796;28;20024;-75
2021/05/10 11:39:41;;;;;;;4.70;1.15;;;17.40;70.70;;;;;;5113209;28;20373;-75
2021/05/10 11:42:10;;;;;;;5.85;1.02;;;17.50;70.50;;;;;;5096811;28;20028;-75
2021/05/10 11:44:44;;;;;;;6.35;1.08;;;17.50;70.60;;;;;;5072620;28;20097;-75
2021/05/10 11:47:12;;;;;;;3.53;1.10;;;17.50;69.10;;;;;;5088687;28;20123;-75
2021/05/10 11:49:51;;;;;;;3.78;1.40;;;17.50;69.80;;;;;;5090685;28;20039;-75
2021/05/10 11:52:22;;;;;;;4.35;0.98;;;17.70;70.50;;;;;;5092271;28;20020;-75
2021/05/10 11:54:55;;;;;;;3.08;0.88;;;17.80;70.90;;;;;;5092710;28;20016;-75
2021/05/10 11:57:23;;;;;;;4.28;1.10;;;18.00;70.40;;;;;;5074415;28;20024;-76
2021/05/10 12:02:23;;;;;;;2.75;0.77;;;18.20;68.50;;;;;;5090912;28;20043;-75
2021/05/10 12:04:59;;;;;;;4.88;0.90;;;18.20;67.70;;;;;;5092438;28;20099;-75
2021/05/10 12:07:29;;;;;;;6.05;0.77;;;18.20;66.70;;;;;;5094835;28;20496;-75
2021/05/10 12:10:03;;;;;;;4.45;1.05;;;18.30;67.10;;;;;;5096790;28;20043;-75
2021/05/10 12:12:44;;;;;;;5.03;1.10;;;18.50;66.50;;;;;;5096343;28;20024;-76
2021/05/10 12:15:14;;;;;;;5.20;1.20;;;18.60;65.60;;;;;;5095879;28;20106;-76
2021/05/10 12:17:44;;;;;;;4.10;1.10;;;18.80;65.40;;;;;;5095838;28;20491;-75
2021/05/10 12:20:12;;;;;;;4.35;0.90;;;19.00;65.80;;;;;;5095895;28;20036;-75
2021/05/10 12:22:47;;;;;;;3.25;0.90;;;19.20;65.00;;;;;;5096163;28;20028;-75
2021/05/10 12:25:20;;;;;;;4.65;1.10;;;19.50;64.70;;;;;;5077970;28;20493;-75
2021/05/10 12:27:56;;;;;;;3.65;1.20;;;19.60;64.10;;;;;;5095992;28;20464;-75
2021/05/10 12:30:23;;;;;;;4.65;1.77;;;19.70;63.70;;;;;;5096027;28;20484;-76
2021/05/10 12:32:57;;;;;;;3.67;1.27;;;19.80;62.90;;;;;;5076141;28;20111;-76
2021/05/10 12:35:26;;;;;;;4.93;1.10;;;20.00;62.00;;;;;;5076202;28;20481;-76
2021/05/10 12:37:53;;;;;;;5.03;1.35;;;20.00;62.70;;;;;;5075664;28;20032;-75
2021/05/10 12:40:28;;;;;;;5.10;1.10;;;20.20;62.00;;;;;;5075382;28;20041;-75
2021/05/10 12:43:17;;;;;;;2.00;1.05;;;20.20;62.70;;;;;;5091066;28;20366;-75
2021/05/10 12:45:48;;;;;;;7.90;1.27;;;20.40;62.20;;;;;;5075564;28;20028;-75
2021/05/10 12:48:19;;;;;;;5.03;1.63;;;20.60;61.40;;;;;;5075393;28;20111;-75
2021/05/10 12:51:04;;;;;;;4.38;1.70;;;21.00;61.70;;;;;;5091080;28;20385;-75
2021/05/10 12:53:35;;;;;;;5.78;1.35;;;21.30;59.90;;;;;;5084328;28;20056;-76
2021/05/10 12:56:06;;;;;;;3.25;1.90;;;21.40;60.40;;;;;;5072172;28;20020;-75
2021/05/10 12:58:41;;;;;;;3.30;1.40;;;21.50;59.70;;;;;;5095587;28;20024;-75
2021/05/10 13:01:14;;;;;;;3.10;1.40;;;21.60;60.00;;;;;;5077321;28;20028;-76
2021/05/10 13:03:40;;;;;;;4.93;1.92;;;21.70;59.90;;;;;;5095498;28;20032;-75